sensor_id;sensor_type;location;lat;lon;timestamp;temperature;humidity
22471;DHT22;11402;51.374;6.594;2022-10-16T00:01:11;13.60;99.90
22471;DHT22;11402;51.374;6.594;2022-10-16T00:03:38;13.50;99.90
22471;DHT22;11402;51.374;6.594;2022-10-16T00:06:05;13.50;99.90
22471;DHT22;11402;51.374;6.594;2022-10-16T00:08:31;13.50;99.90
22471;DHT22;11402;51.374;6.594;2022-10-16T00:11:11;13.60;99.90
22471;DHT22;11402;51.374;6.594;2022-10-16T00:13:38;13.60;99.90
22471;DHT22;11402;51.374;6.594;2022-10-16T00:16:05;13.60;99.90
22471;DHT22;11402;51.374;6.594;2022-10-16T00:18:31;13.70;99.90
22471;DHT22;11402;51.374;6.594;2022-10-16T00:21:02;13.60;99.90
22471;DHT22;11402;51.374;6.594;2022-10-16T00:23:28;13.70;99.90
22471;DHT22;11402;51.374;6.594;2022-10-16T00:25:56;13.60;99.90
22471;DHT22;11402;51.374;6.594;2022-10-16T00:28:22;13.70;99.90
22471;DHT22;11402;51.374;6.594;2022-10-16T00:30:47;13.60;99.90
22471;DHT22;11402;51.374;6.594;2022-10-16T00:33:13;13.50;99.90
22471;DHT22;11402;51.374;6.594;2022-10-16T00:35:38;13.50;99.90
22471;DHT22;11402;51.374;6.594;2022-10-16T00:38:04;13.50;99.90
22471;DHT22;11402;51.374;6.594;2022-10-16T00:40:30;13.50;99.90
22471;DHT22;11402;51.374;6.594;2022-10-16T00:42:56;13.50;99.90
22471;DHT22;11402;51.374;6.594;2022-10-16T00:45:22;13.50;99.90
22471;DHT22;11402;51.374;6.594;2022-10-16T00:47:48;13.50;99.90
22471;DHT22;11402;51.374;6.594;2022-10-16T00:50:24;13.40;99.90
22471;DHT22;11402;51.374;6.594;2022-10-16T00:52:52;13.40;99.90
22471;DHT22;11402;51.374;6.594;2022-10-16T00:55:19;13.40;99.90
22471;DHT22;11402;51.374;6.594;2022-10-16T00:57:45;13.40;99.90
22471;DHT22;11402;51.374;6.594;2022-10-16T01:00:15;13.40;99.90
22471;DHT22;11402;51.374;6.594;2022-10-16T01:02:41;13.40;99.90
22471;DHT22;11402;51.374;6.594;2022-10-16T01:05:07;13.40;99.90
22471;DHT22;11402;51.374;6.594;2022-10-16T01:10:48;13.40;99.90
22471;DHT22;11402;51.374;6.594;2022-10-16T01:13:22;13.40;99.90
22471;DHT22;11402;51.374;6.594;2022-10-16T01:16:19;13.40;99.90
22471;DHT22;11402;51.374;6.594;2022-10-16T01:18:46;13.30;99.90
22471;DHT22;11402;51.374;6.594;2022-10-16T01:21:24;13.30;99.90
22471;DHT22;11402;51.374;6.594;2022-10-16T01:27:10;13.30;99.90
22471;DHT22;11402;51.374;6.594;2022-10-16T01:32:57;13.30;99.90
22471;DHT22;11402;51.374;6.594;2022-10-16T01:35:34;13.30;99.90
22471;DHT22;11402;51.374;6.594;2022-10-16T01:38:26;13.30;99.90
22471;DHT22;11402;51.374;6.594;2022-10-16T01:41:01;13.30;99.90
22471;DHT22;11402;51.374;6.594;2022-10-16T01:43:33;13.30;99.90
22471;DHT22;11402;51.374;6.594;2022-10-16T01:46:02;13.30;99.90
22471;DHT22;11402;51.374;6.594;2022-10-16T01:48:29;13.30;99.90
22471;DHT22;11402;51.374;6.594;2022-10-16T01:51:09;13.30;99.90
22471;DHT22;11402;51.374;6.594;2022-10-16T01:53:36;13.20;99.90
22471;DHT22;11402;51.374;6.594;2022-10-16T01:56:04;13.20;99.90
22471;DHT22;11402;51.374;6.594;2022-10-16T01:58:35;12.40;99.90
22471;DHT22;11402;51.374;6.594;2022-10-16T02:01:03;13.20;99.90
22471;DHT22;11402;51.374;6.594;2022-10-16T02:03:29;13.10;99.90
22471;DHT22;11402;51.374;6.594;2022-10-16T02:05:56;13.00;99.90
22471;DHT22;11402;51.374;6.594;2022-10-16T02:08:26;13.10;99.90
22471;DHT22;11402;51.374;6.594;2022-10-16T02:10:55;13.10;99.90
22471;DHT22;11402;51.374;6.594;2022-10-16T02:15:53;13.10;99.90
22471;DHT22;11402;51.374;6.594;2022-10-16T02:18:19;13.20;99.90
22471;DHT22;11402;51.374;6.594;2022-10-16T02:20:55;13.20;99.90
22471;DHT22;11402;51.374;6.594;2022-10-16T02:26:31;13.10;99.90
22471;DHT22;11402;51.374;6.594;2022-10-16T02:29:02;13.10;99.90
22471;DHT22;11402;51.374;6.594;2022-10-16T02:31:32;13.20;99.90
22471;DHT22;11402;51.374;6.594;2022-10-16T02:34:00;13.10;99.90
22471;DHT22;11402;51.374;6.594;2022-10-16T02:36:27;13.20;99.90
22471;DHT22;11402;51.374;6.594;2022-10-16T02:38:53;13.10;99.90
22471;DHT22;11402;51.374;6.594;2022-10-16T02:41:21;13.20;99.90
22471;DHT22;11402;51.374;6.594;2022-10-16T02:43:48;13.10;99.90
22471;DHT22;11402;51.374;6.594;2022-10-16T02:46:15;13.10;99.90
22471;DHT22;11402;51.374;6.594;2022-10-16T02:48:40;13.10;99.90
22471;DHT22;11402;51.374;6.594;2022-10-16T02:51:06;13.10;99.90
22471;DHT22;11402;51.374;6.594;2022-10-16T02:53:31;13.20;99.90
22471;DHT22;11402;51.374;6.594;2022-10-16T02:55:57;13.10;99.90
22471;DHT22;11402;51.374;6.594;2022-10-16T02:58:23;13.10;99.90
22471;DHT22;11402;51.374;6.594;2022-10-16T03:00:48;13.10;99.90
22471;DHT22;11402;51.374;6.594;2022-10-16T03:03:14;13.00;99.90
22471;DHT22;11402;51.374;6.594;2022-10-16T03:05:39;13.10;99.90
22471;DHT22;11402;51.374;6.594;2022-10-16T03:08:05;13.30;99.90
22471;DHT22;11402;51.374;6.594;2022-10-16T03:10:30;13.20;99.90
22471;DHT22;11402;51.374;6.594;2022-10-16T03:12:56;13.30;99.90
22471;DHT22;11402;51.374;6.594;2022-10-16T03:15:21;13.30;99.90
22471;DHT22;11402;51.374;6.594;2022-10-16T03:17:47;13.20;99.90
22471;DHT22;11402;51.374;6.594;2022-10-16T03:20:13;13.30;99.90
22471;DHT22;11402;51.374;6.594;2022-10-16T03:22:38;13.20;99.90
22471;DHT22;11402;51.374;6.594;2022-10-16T03:25:04;13.30;99.90
22471;DHT22;11402;51.374;6.594;2022-10-16T03:27:30;13.30;99.90
22471;DHT22;11402;51.374;6.594;2022-10-16T03:29:55;13.30;99.90
22471;DHT22;11402;51.374;6.594;2022-10-16T03:32:21;13.20;99.90
22471;DHT22;11402;51.374;6.594;2022-10-16T03:34:47;13.20;99.90
22471;DHT22;11402;51.374;6.594;2022-10-16T03:37:12;13.20;99.90
22471;DHT22;11402;51.374;6.594;2022-10-16T03:39:38;13.20;99.90
22471;DHT22;11402;51.374;6.594;2022-10-16T03:42:03;13.20;99.90
22471;DHT22;11402;51.374;6.594;2022-10-16T03:44:29;13.20;99.90
22471;DHT22;11402;51.374;6.594;2022-10-16T03:46:54;13.20;99.90
22471;DHT22;11402;51.374;6.594;2022-10-16T03:49:20;13.10;99.90
22471;DHT22;11402;51.374;6.594;2022-10-16T03:51:46;13.10;99.90
22471;DHT22;11402;51.374;6.594;2022-10-16T03:54:11;13.00;99.90
22471;DHT22;11402;51.374;6.594;2022-10-16T03:56:37;13.10;99.90
22471;DHT22;11402;51.374;6.594;2022-10-16T03:59:03;13.00;99.90
22471;DHT22;11402;51.374;6.594;2022-10-16T04:01:28;13.00;99.90
22471;DHT22;11402;51.374;6.594;2022-10-16T04:03:54;13.10;99.90
22471;DHT22;11402;51.374;6.594;2022-10-16T04:06:19;13.00;99.90
22471;DHT22;11402;51.374;6.594;2022-10-16T04:08:45;13.00;99.90
22471;DHT22;11402;51.374;6.594;2022-10-16T04:11:10;13.00;99.90
22471;DHT22;11402;51.374;6.594;2022-10-16T04:13:36;12.90;99.90
22471;DHT22;11402;51.374;6.594;2022-10-16T04:16:02;13.00;99.90
22471;DHT22;11402;51.374;6.594;2022-10-16T04:18:28;13.00;99.90
22471;DHT22;11402;51.374;6.594;2022-10-16T04:20:54;13.00;99.90
22471;DHT22;11402;51.374;6.594;2022-10-16T04:23:20;12.90;99.90
22471;DHT22;11402;51.374;6.594;2022-10-16T04:25:45;12.90;99.90
22471;DHT22;11402;51.374;6.594;2022-10-16T04:28:11;12.90;99.90
22471;DHT22;11402;51.374;6.594;2022-10-16T04:30:40;12.90;99.90
22471;DHT22;11402;51.374;6.594;2022-10-16T04:33:05;12.90;99.90
22471;DHT22;11402;51.374;6.594;2022-10-16T04:35:31;12.90;99.90
22471;DHT22;11402;51.374;6.594;2022-10-16T04:37:59;12.90;99.90
22471;DHT22;11402;51.374;6.594;2022-10-16T04:40:25;12.90;99.90
22471;DHT22;11402;51.374;6.594;2022-10-16T04:42:51;12.80;99.90
22471;DHT22;11402;51.374;6.594;2022-10-16T04:45:16;12.80;99.90
22471;DHT22;11402;51.374;6.594;2022-10-16T04:47:42;12.80;99.90
22471;DHT22;11402;51.374;6.594;2022-10-16T04:50:08;12.80;99.90
22471;DHT22;11402;51.374;6.594;2022-10-16T04:52:33;12.80;99.90
22471;DHT22;11402;51.374;6.594;2022-10-16T04:54:59;12.80;99.90
22471;DHT22;11402;51.374;6.594;2022-10-16T04:57:28;12.80;99.90
22471;DHT22;11402;51.374;6.594;2022-10-16T04:59:55;12.80;99.90
22471;DHT22;11402;51.374;6.594;2022-10-16T05:02:20;12.80;99.90
22471;DHT22;11402;51.374;6.594;2022-10-16T05:04:46;12.80;99.90
22471;DHT22;11402;51.374;6.594;2022-10-16T05:07:11;12.80;99.90
22471;DHT22;11402;51.374;6.594;2022-10-16T05:09:37;12.80;99.90
22471;DHT22;11402;51.374;6.594;2022-10-16T05:12:03;12.80;99.90
22471;DHT22;11402;51.374;6.594;2022-10-16T05:14:29;12.80;99.90
22471;DHT22;11402;51.374;6.594;2022-10-16T05:16:54;12.80;99.90
22471;DHT22;11402;51.374;6.594;2022-10-16T05:19:20;12.80;99.90
22471;DHT22;11402;51.374;6.594;2022-10-16T05:21:46;12.80;99.90
22471;DHT22;11402;51.374;6.594;2022-10-16T05:24:11;12.80;99.90
22471;DHT22;11402;51.374;6.594;2022-10-16T05:26:37;12.80;99.90
22471;DHT22;11402;51.374;6.594;2022-10-16T05:29:03;12.80;99.90
22471;DHT22;11402;51.374;6.594;2022-10-16T05:31:29;12.80;99.90
22471;DHT22;11402;51.374;6.594;2022-10-16T05:34:03;12.80;99.90
22471;DHT22;11402;51.374;6.594;2022-10-16T05:36:29;12.70;99.90
22471;DHT22;11402;51.374;6.594;2022-10-16T05:38:54;12.70;99.90
22471;DHT22;11402;51.374;6.594;2022-10-16T05:41:20;12.80;99.90
22471;DHT22;11402;51.374;6.594;2022-10-16T05:43:47;12.70;99.90
22471;DHT22;11402;51.374;6.594;2022-10-16T05:46:14;12.70;99.90
22471;DHT22;11402;51.374;6.594;2022-10-16T05:48:39;12.70;99.90
22471;DHT22;11402;51.374;6.594;2022-10-16T05:51:07;12.70;99.90
22471;DHT22;11402;51.374;6.594;2022-10-16T05:53:35;12.80;99.90
22471;DHT22;11402;51.374;6.594;2022-10-16T05:56:01;12.80;99.90
22471;DHT22;11402;51.374;6.594;2022-10-16T05:58:35;12.80;99.90
22471;DHT22;11402;51.374;6.594;2022-10-16T06:01:02;12.70;99.90
22471;DHT22;11402;51.374;6.594;2022-10-16T06:03:28;12.70;99.90
22471;DHT22;11402;51.374;6.594;2022-10-16T06:05:53;12.70;99.90
22471;DHT22;11402;51.374;6.594;2022-10-16T06:08:21;12.60;99.90
22471;DHT22;11402;51.374;6.594;2022-10-16T06:10:47;12.60;99.90
22471;DHT22;11402;51.374;6.594;2022-10-16T06:13:13;12.60;99.90
22471;DHT22;11402;51.374;6.594;2022-10-16T06:15:40;12.60;99.90
22471;DHT22;11402;51.374;6.594;2022-10-16T06:18:10;12.60;99.90
22471;DHT22;11402;51.374;6.594;2022-10-16T06:20:36;12.70;99.90
22471;DHT22;11402;51.374;6.594;2022-10-16T06:23:02;12.70;99.90
22471;DHT22;11402;51.374;6.594;2022-10-16T06:25:30;12.70;99.90
22471;DHT22;11402;51.374;6.594;2022-10-16T06:27:55;12.70;99.90
22471;DHT22;11402;51.374;6.594;2022-10-16T06:30:21;12.70;99.90
22471;DHT22;11402;51.374;6.594;2022-10-16T06:32:46;12.80;99.90
22471;DHT22;11402;51.374;6.594;2022-10-16T06:35:12;13.00;99.90
22471;DHT22;11402;51.374;6.594;2022-10-16T06:37:37;13.00;99.90
22471;DHT22;11402;51.374;6.594;2022-10-16T06:40:03;12.90;99.90
22471;DHT22;11402;51.374;6.594;2022-10-16T06:42:29;12.90;99.90
22471;DHT22;11402;51.374;6.594;2022-10-16T06:44:55;12.80;99.90
22471;DHT22;11402;51.374;6.594;2022-10-16T06:47:21;13.00;99.90
22471;DHT22;11402;51.374;6.594;2022-10-16T06:49:46;13.00;99.90
22471;DHT22;11402;51.374;6.594;2022-10-16T06:52:12;13.00;99.90
22471;DHT22;11402;51.374;6.594;2022-10-16T06:54:37;13.00;99.90
22471;DHT22;11402;51.374;6.594;2022-10-16T06:57:03;13.10;99.90
22471;DHT22;11402;51.374;6.594;2022-10-16T06:59:28;13.00;99.90
22471;DHT22;11402;51.374;6.594;2022-10-16T07:01:54;13.00;99.90
22471;DHT22;11402;51.374;6.594;2022-10-16T07:04:19;13.00;99.90
22471;DHT22;11402;51.374;6.594;2022-10-16T07:06:45;13.10;99.90
22471;DHT22;11402;51.374;6.594;2022-10-16T07:09:11;12.90;99.90
22471;DHT22;11402;51.374;6.594;2022-10-16T07:11:39;12.90;99.90
22471;DHT22;11402;51.374;6.594;2022-10-16T07:14:05;13.00;99.90
22471;DHT22;11402;51.374;6.594;2022-10-16T07:16:34;13.00;99.90
22471;DHT22;11402;51.374;6.594;2022-10-16T07:19:02;13.00;99.90
22471;DHT22;11402;51.374;6.594;2022-10-16T07:21:30;13.00;99.90
22471;DHT22;11402;51.374;6.594;2022-10-16T07:23:58;13.10;99.90
22471;DHT22;11402;51.374;6.594;2022-10-16T07:26:24;13.00;99.90
22471;DHT22;11402;51.374;6.594;2022-10-16T07:28:50;13.00;99.90
22471;DHT22;11402;51.374;6.594;2022-10-16T07:31:18;13.10;99.90
22471;DHT22;11402;51.374;6.594;2022-10-16T07:33:45;13.20;99.90
22471;DHT22;11402;51.374;6.594;2022-10-16T07:36:14;13.30;99.90
22471;DHT22;11402;51.374;6.594;2022-10-16T07:38:40;13.40;99.90
22471;DHT22;11402;51.374;6.594;2022-10-16T07:41:10;13.50;99.90
22471;DHT22;11402;51.374;6.594;2022-10-16T07:43:36;13.60;99.90
22471;DHT22;11402;51.374;6.594;2022-10-16T07:46:01;13.70;99.90
22471;DHT22;11402;51.374;6.594;2022-10-16T07:48:29;13.80;99.90
22471;DHT22;11402;51.374;6.594;2022-10-16T07:51:00;13.80;99.90
22471;DHT22;11402;51.374;6.594;2022-10-16T07:53:26;13.90;99.90
22471;DHT22;11402;51.374;6.594;2022-10-16T07:55:52;14.00;99.90
22471;DHT22;11402;51.374;6.594;2022-10-16T07:58:21;14.10;99.90
22471;DHT22;11402;51.374;6.594;2022-10-16T08:00:47;14.20;99.90
22471;DHT22;11402;51.374;6.594;2022-10-16T08:03:12;14.30;99.90
22471;DHT22;11402;51.374;6.594;2022-10-16T08:08:04;14.40;99.90
22471;DHT22;11402;51.374;6.594;2022-10-16T08:10:29;14.50;99.90
22471;DHT22;11402;51.374;6.594;2022-10-16T08:12:57;14.50;99.90
22471;DHT22;11402;51.374;6.594;2022-10-16T08:15:22;14.50;99.90
22471;DHT22;11402;51.374;6.594;2022-10-16T08:17:58;14.50;99.90
22471;DHT22;11402;51.374;6.594;2022-10-16T08:20:24;14.60;99.90
22471;DHT22;11402;51.374;6.594;2022-10-16T08:22:50;14.70;99.90
22471;DHT22;11402;51.374;6.594;2022-10-16T08:25:16;14.70;99.90
22471;DHT22;11402;51.374;6.594;2022-10-16T08:27:41;14.80;99.90
22471;DHT22;11402;51.374;6.594;2022-10-16T08:30:08;14.80;99.90
22471;DHT22;11402;51.374;6.594;2022-10-16T08:32:33;14.80;99.90
22471;DHT22;11402;51.374;6.594;2022-10-16T08:34:59;14.90;99.90
22471;DHT22;11402;51.374;6.594;2022-10-16T08:37:24;14.90;99.90
22471;DHT22;11402;51.374;6.594;2022-10-16T08:39:50;14.90;99.90
22471;DHT22;11402;51.374;6.594;2022-10-16T08:48:05;15.10;99.90
22471;DHT22;11402;51.374;6.594;2022-10-16T08:50:36;15.20;99.90
22471;DHT22;11402;51.374;6.594;2022-10-16T08:53:04;15.30;99.90
22471;DHT22;11402;51.374;6.594;2022-10-16T08:55:51;15.30;99.90
22471;DHT22;11402;51.374;6.594;2022-10-16T08:58:27;15.40;99.90
22471;DHT22;11402;51.374;6.594;2022-10-16T09:00:59;15.40;99.90
22471;DHT22;11402;51.374;6.594;2022-10-16T09:03:48;15.40;99.90
22471;DHT22;11402;51.374;6.594;2022-10-16T09:11:46;15.60;99.90
22471;DHT22;11402;51.374;6.594;2022-10-16T09:17:00;15.70;99.90
22471;DHT22;11402;51.374;6.594;2022-10-16T09:19:40;15.80;99.90
22471;DHT22;11402;51.374;6.594;2022-10-16T09:22:16;15.80;99.90
22471;DHT22;11402;51.374;6.594;2022-10-16T09:24:42;15.80;99.90
22471;DHT22;11402;51.374;6.594;2022-10-16T09:27:11;15.80;99.90
22471;DHT22;11402;51.374;6.594;2022-10-16T09:29:37;15.90;99.90
22471;DHT22;11402;51.374;6.594;2022-10-16T09:32:13;15.80;99.90
22471;DHT22;11402;51.374;6.594;2022-10-16T09:34:45;15.90;99.90
22471;DHT22;11402;51.374;6.594;2022-10-16T09:37:14;16.00;99.90
22471;DHT22;11402;51.374;6.594;2022-10-16T09:39:51;16.00;99.90
22471;DHT22;11402;51.374;6.594;2022-10-16T09:42:24;16.00;99.90
22471;DHT22;11402;51.374;6.594;2022-10-16T09:44:52;16.00;99.90
22471;DHT22;11402;51.374;6.594;2022-10-16T09:47:22;16.10;99.90
22471;DHT22;11402;51.374;6.594;2022-10-16T09:49:54;16.10;99.90
22471;DHT22;11402;51.374;6.594;2022-10-16T09:52:22;16.10;99.90
22471;DHT22;11402;51.374;6.594;2022-10-16T09:55:03;16.10;99.90
22471;DHT22;11402;51.374;6.594;2022-10-16T09:57:47;16.20;99.90
22471;DHT22;11402;51.374;6.594;2022-10-16T10:00:16;16.20;99.90
22471;DHT22;11402;51.374;6.594;2022-10-16T10:02:42;16.30;99.90
22471;DHT22;11402;51.374;6.594;2022-10-16T10:05:23;16.30;99.90
22471;DHT22;11402;51.374;6.594;2022-10-16T10:07:58;16.30;99.90
22471;DHT22;11402;51.374;6.594;2022-10-16T10:10:27;16.30;99.90
22471;DHT22;11402;51.374;6.594;2022-10-16T10:12:55;16.40;99.90
22471;DHT22;11402;51.374;6.594;2022-10-16T10:15:21;16.40;99.90
22471;DHT22;11402;51.374;6.594;2022-10-16T10:17:57;16.50;99.90
22471;DHT22;11402;51.374;6.594;2022-10-16T10:20:30;16.50;99.90
22471;DHT22;11402;51.374;6.594;2022-10-16T10:22:58;16.50;99.90
22471;DHT22;11402;51.374;6.594;2022-10-16T10:25:54;16.40;99.90
22471;DHT22;11402;51.374;6.594;2022-10-16T10:28:20;16.50;99.90
22471;DHT22;11402;51.374;6.594;2022-10-16T10:30:59;16.50;99.90
22471;DHT22;11402;51.374;6.594;2022-10-16T10:33:54;16.50;99.90
22471;DHT22;11402;51.374;6.594;2022-10-16T10:42:00;16.60;99.90
22471;DHT22;11402;51.374;6.594;2022-10-16T10:47:42;16.60;99.90
22471;DHT22;11402;51.374;6.594;2022-10-16T10:53:21;16.60;99.90
22471;DHT22;11402;51.374;6.594;2022-10-16T11:01:17;16.80;99.90
22471;DHT22;11402;51.374;6.594;2022-10-16T11:06:43;16.80;99.90
22471;DHT22;11402;51.374;6.594;2022-10-16T11:09:19;16.80;99.90
22471;DHT22;11402;51.374;6.594;2022-10-16T11:14:28;16.80;99.90
22471;DHT22;11402;51.374;6.594;2022-10-16T11:17:10;16.80;99.90
22471;DHT22;11402;51.374;6.594;2022-10-16T11:25:02;16.90;99.90
22471;DHT22;11402;51.374;6.594;2022-10-16T11:27:39;16.90;99.90
22471;DHT22;11402;51.374;6.594;2022-10-16T11:30:14;16.90;99.90
22471;DHT22;11402;51.374;6.594;2022-10-16T11:33:00;17.00;99.90
22471;DHT22;11402;51.374;6.594;2022-10-16T11:35:42;17.00;99.90
22471;DHT22;11402;51.374;6.594;2022-10-16T11:38:15;17.00;99.90
22471;DHT22;11402;51.374;6.594;2022-10-16T11:40:44;17.00;99.90
22471;DHT22;11402;51.374;6.594;2022-10-16T11:43:55;17.00;99.90
22471;DHT22;11402;51.374;6.594;2022-10-16T11:46:16;17.10;99.90
22471;DHT22;11402;51.374;6.594;2022-10-16T11:48:54;17.20;99.90
22471;DHT22;11402;51.374;6.594;2022-10-16T11:51:40;17.10;99.90
22471;DHT22;11402;51.374;6.594;2022-10-16T11:56:53;17.20;99.90
22471;DHT22;11402;51.374;6.594;2022-10-16T11:59:41;17.20;99.90
22471;DHT22;11402;51.374;6.594;2022-10-16T12:08:10;17.20;99.90
22471;DHT22;11402;51.374;6.594;2022-10-16T12:10:37;17.30;99.90
22471;DHT22;11402;51.374;6.594;2022-10-16T12:13:35;17.40;99.90
22471;DHT22;11402;51.374;6.594;2022-10-16T12:16:27;17.30;99.90
22471;DHT22;11402;51.374;6.594;2022-10-16T12:21:35;17.40;99.90
22471;DHT22;11402;51.374;6.594;2022-10-16T12:24:03;17.30;99.90
22471;DHT22;11402;51.374;6.594;2022-10-16T12:26:34;17.30;99.90
22471;DHT22;11402;51.374;6.594;2022-10-16T12:29:20;17.30;99.90
22471;DHT22;11402;51.374;6.594;2022-10-16T12:31:49;17.30;99.90
22471;DHT22;11402;51.374;6.594;2022-10-16T12:37:15;17.40;99.90
22471;DHT22;11402;51.374;6.594;2022-10-16T12:39:44;17.50;99.90
22471;DHT22;11402;51.374;6.594;2022-10-16T12:44:54;17.60;99.90
22471;DHT22;11402;51.374;6.594;2022-10-16T12:49:55;17.50;99.90
22471;DHT22;11402;51.374;6.594;2022-10-16T12:52:36;17.60;99.90
22471;DHT22;11402;51.374;6.594;2022-10-16T12:55:04;17.50;99.90
22471;DHT22;11402;51.374;6.594;2022-10-16T12:57:39;17.50;99.90
22471;DHT22;11402;51.374;6.594;2022-10-16T13:00:26;17.50;99.90
22471;DHT22;11402;51.374;6.594;2022-10-16T13:06:08;17.30;99.90
22471;DHT22;11402;51.374;6.594;2022-10-16T13:09:02;17.30;99.90
22471;DHT22;11402;51.374;6.594;2022-10-16T13:12:00;17.40;99.90
22471;DHT22;11402;51.374;6.594;2022-10-16T13:14:44;17.40;99.90
22471;DHT22;11402;51.374;6.594;2022-10-16T13:20:10;17.40;99.90
22471;DHT22;11402;51.374;6.594;2022-10-16T13:25:44;17.40;99.90
22471;DHT22;11402;51.374;6.594;2022-10-16T13:28:12;17.40;99.90
22471;DHT22;11402;51.374;6.594;2022-10-16T13:30:45;17.50;99.90
22471;DHT22;11402;51.374;6.594;2022-10-16T13:35:54;17.50;99.90
22471;DHT22;11402;51.374;6.594;2022-10-16T13:38:25;17.70;99.90
22471;DHT22;11402;51.374;6.594;2022-10-16T13:40:55;17.70;99.90
22471;DHT22;11402;51.374;6.594;2022-10-16T13:43:42;17.70;99.90
22471;DHT22;11402;51.374;6.594;2022-10-16T13:46:13;17.70;99.90
22471;DHT22;11402;51.374;6.594;2022-10-16T13:48:40;17.80;99.90
22471;DHT22;11402;51.374;6.594;2022-10-16T13:51:14;17.90;99.90
22471;DHT22;11402;51.374;6.594;2022-10-16T13:53:41;17.80;99.90
22471;DHT22;11402;51.374;6.594;2022-10-16T13:56:15;17.90;99.90
22471;DHT22;11402;51.374;6.594;2022-10-16T13:58:41;17.90;99.90
22471;DHT22;11402;51.374;6.594;2022-10-16T14:01:23;18.00;99.90
22471;DHT22;11402;51.374;6.594;2022-10-16T14:03:50;18.00;99.90
22471;DHT22;11402;51.374;6.594;2022-10-16T14:06:19;18.00;99.90
22471;DHT22;11402;51.374;6.594;2022-10-16T14:08:57;18.00;99.90
22471;DHT22;11402;51.374;6.594;2022-10-16T14:11:24;18.00;99.90
22471;DHT22;11402;51.374;6.594;2022-10-16T14:13:51;18.10;99.90
22471;DHT22;11402;51.374;6.594;2022-10-16T14:16:20;18.10;99.90
22471;DHT22;11402;51.374;6.594;2022-10-16T14:18:54;18.00;99.90
22471;DHT22;11402;51.374;6.594;2022-10-16T14:21:20;17.90;99.90
22471;DHT22;11402;51.374;6.594;2022-10-16T14:23:46;17.90;99.90
22471;DHT22;11402;51.374;6.594;2022-10-16T14:26:14;17.80;99.90
22471;DHT22;11402;51.374;6.594;2022-10-16T14:28:41;18.00;99.90
22471;DHT22;11402;51.374;6.594;2022-10-16T14:33:45;17.90;99.90
22471;DHT22;11402;51.374;6.594;2022-10-16T14:36:12;17.80;99.90
22471;DHT22;11402;51.374;6.594;2022-10-16T14:38:40;18.00;99.90
22471;DHT22;11402;51.374;6.594;2022-10-16T14:41:07;17.90;99.90
22471;DHT22;11402;51.374;6.594;2022-10-16T14:43:35;17.80;99.90
22471;DHT22;11402;51.374;6.594;2022-10-16T14:46:03;17.70;99.90
22471;DHT22;11402;51.374;6.594;2022-10-16T14:48:31;17.70;99.90
22471;DHT22;11402;51.374;6.594;2022-10-16T14:50:57;17.70;99.90
22471;DHT22;11402;51.374;6.594;2022-10-16T14:53:23;17.70;99.90
22471;DHT22;11402;51.374;6.594;2022-10-16T14:55:48;17.70;99.90
22471;DHT22;11402;51.374;6.594;2022-10-16T14:58:18;17.70;99.90
22471;DHT22;11402;51.374;6.594;2022-10-16T15:00:44;17.70;99.90
22471;DHT22;11402;51.374;6.594;2022-10-16T15:03:10;17.60;99.90
22471;DHT22;11402;51.374;6.594;2022-10-16T15:05:36;17.50;99.90
22471;DHT22;11402;51.374;6.594;2022-10-16T15:08:02;17.50;99.90
22471;DHT22;11402;51.374;6.594;2022-10-16T15:10:31;17.40;99.90
22471;DHT22;11402;51.374;6.594;2022-10-16T15:12:58;17.40;99.90
22471;DHT22;11402;51.374;6.594;2022-10-16T15:17:59;17.40;99.90
22471;DHT22;11402;51.374;6.594;2022-10-16T15:20:32;17.40;99.90
22471;DHT22;11402;51.374;6.594;2022-10-16T15:23:21;17.40;99.90
22471;DHT22;11402;51.374;6.594;2022-10-16T15:25:54;17.40;99.90
22471;DHT22;11402;51.374;6.594;2022-10-16T15:28:22;17.30;99.90
22471;DHT22;11402;51.374;6.594;2022-10-16T15:30:52;17.30;99.90
22471;DHT22;11402;51.374;6.594;2022-10-16T15:33:20;17.30;99.90
22471;DHT22;11402;51.374;6.594;2022-10-16T15:35:48;17.30;99.90
22471;DHT22;11402;51.374;6.594;2022-10-16T15:38:15;17.40;99.90
22471;DHT22;11402;51.374;6.594;2022-10-16T15:40:41;17.40;99.90
22471;DHT22;11402;51.374;6.594;2022-10-16T15:43:07;17.30;99.90
22471;DHT22;11402;51.374;6.594;2022-10-16T15:45:33;17.30;99.90
22471;DHT22;11402;51.374;6.594;2022-10-16T15:47:59;17.30;99.90
22471;DHT22;11402;51.374;6.594;2022-10-16T15:50:24;17.30;99.90
22471;DHT22;11402;51.374;6.594;2022-10-16T15:52:51;17.40;99.90
22471;DHT22;11402;51.374;6.594;2022-10-16T15:55:17;17.20;99.90
22471;DHT22;11402;51.374;6.594;2022-10-16T15:57:44;17.10;99.90
22471;DHT22;11402;51.374;6.594;2022-10-16T16:00:18;17.10;99.90
22471;DHT22;11402;51.374;6.594;2022-10-16T16:02:54;17.10;99.90
22471;DHT22;11402;51.374;6.594;2022-10-16T16:05:21;17.10;99.90
22471;DHT22;11402;51.374;6.594;2022-10-16T16:07:49;17.10;99.90
22471;DHT22;11402;51.374;6.594;2022-10-16T16:10:15;17.00;99.90
22471;DHT22;11402;51.374;6.594;2022-10-16T16:12:40;17.00;99.90
22471;DHT22;11402;51.374;6.594;2022-10-16T16:15:07;16.90;99.90
22471;DHT22;11402;51.374;6.594;2022-10-16T16:17:34;16.80;99.90
22471;DHT22;11402;51.374;6.594;2022-10-16T16:20:00;16.70;99.90
22471;DHT22;11402;51.374;6.594;2022-10-16T16:22:26;16.70;99.90
22471;DHT22;11402;51.374;6.594;2022-10-16T16:24:52;16.60;99.90
22471;DHT22;11402;51.374;6.594;2022-10-16T16:27:17;16.90;99.90
22471;DHT22;11402;51.374;6.594;2022-10-16T16:29:45;16.60;99.90
22471;DHT22;11402;51.374;6.594;2022-10-16T16:32:10;16.50;99.90
22471;DHT22;11402;51.374;6.594;2022-10-16T16:34:36;16.40;99.90
22471;DHT22;11402;51.374;6.594;2022-10-16T16:39:27;16.10;99.90
22471;DHT22;11402;51.374;6.594;2022-10-16T16:41:55;16.20;99.90
22471;DHT22;11402;51.374;6.594;2022-10-16T16:44:21;16.30;99.90
22471;DHT22;11402;51.374;6.594;2022-10-16T16:46:46;16.00;99.90
22471;DHT22;11402;51.374;6.594;2022-10-16T16:49:13;16.00;99.90
22471;DHT22;11402;51.374;6.594;2022-10-16T16:51:40;16.00;99.90
22471;DHT22;11402;51.374;6.594;2022-10-16T16:54:06;16.00;99.90
22471;DHT22;11402;51.374;6.594;2022-10-16T16:56:33;16.00;99.90
22471;DHT22;11402;51.374;6.594;2022-10-16T16:58:59;16.00;99.90
22471;DHT22;11402;51.374;6.594;2022-10-16T17:01:26;16.00;99.90
22471;DHT22;11402;51.374;6.594;2022-10-16T17:03:54;16.00;99.90
22471;DHT22;11402;51.374;6.594;2022-10-16T17:06:22;15.80;99.90
22471;DHT22;11402;51.374;6.594;2022-10-16T17:08:49;15.80;99.90
22471;DHT22;11402;51.374;6.594;2022-10-16T17:11:18;15.80;99.90
22471;DHT22;11402;51.374;6.594;2022-10-16T17:13:44;15.80;99.90
22471;DHT22;11402;51.374;6.594;2022-10-16T17:16:10;15.70;99.90
22471;DHT22;11402;51.374;6.594;2022-10-16T17:18:36;15.80;99.90
22471;DHT22;11402;51.374;6.594;2022-10-16T17:21:04;16.00;99.90